sensor_id;sensor_type;location;lat;lon;timestamp;P1;durP1;ratioP1;P2;durP2;ratioP2
71503;SDS011;59323;50.874;7.028;2023-05-23T00:00:53;15.20;;;5.70;;
71503;SDS011;59323;50.874;7.028;2023-05-23T00:03:18;12.23;;;5.70;;
71503;SDS011;59323;50.874;7.028;2023-05-23T00:05:46;12.37;;;5.57;;
71503;SDS011;59323;50.874;7.028;2023-05-23T00:08:12;11.60;;;5.70;;
71503;SDS011;59323;50.874;7.028;2023-05-23T00:10:37;11.73;;;5.07;;
71503;SDS011;59323;50.874;7.028;2023-05-23T00:13:03;11.80;;;5.83;;
71503;SDS011;59323;50.874;7.028;2023-05-23T00:15:29;11.75;;;5.97;;
71503;SDS011;59323;50.874;7.028;2023-05-23T00:17:55;11.20;;;5.53;;
71503;SDS011;59323;50.874;7.028;2023-05-23T00:20:20;11.27;;;5.82;;
71503;SDS011;59323;50.874;7.028;2023-05-23T00:22:46;11.50;;;5.97;;
71503;SDS011;59323;50.874;7.028;2023-05-23T00:25:12;11.50;;;5.93;;
71503;SDS011;59323;50.874;7.028;2023-05-23T00:27:37;11.17;;;5.87;;
71503;SDS011;59323;50.874;7.028;2023-05-23T00:30:03;12.97;;;5.63;;
71503;SDS011;59323;50.874;7.028;2023-05-23T00:32:28;12.60;;;5.50;;
71503;SDS011;59323;50.874;7.028;2023-05-23T00:34:54;12.37;;;6.13;;
71503;SDS011;59323;50.874;7.028;2023-05-23T00:37:20;13.63;;;6.35;;
71503;SDS011;59323;50.874;7.028;2023-05-23T00:39:46;13.90;;;6.13;;
71503;SDS011;59323;50.874;7.028;2023-05-23T00:42:12;12.18;;;6.45;;
71503;SDS011;59323;50.874;7.028;2023-05-23T00:44:37;15.00;;;6.30;;
71503;SDS011;59323;50.874;7.028;2023-05-23T00:47:04;11.97;;;6.07;;
71503;SDS011;59323;50.874;7.028;2023-05-23T00:49:31;11.20;;;5.43;;
71503;SDS011;59323;50.874;7.028;2023-05-23T00:51:57;13.97;;;6.40;;
71503;SDS011;59323;50.874;7.028;2023-05-23T00:54:25;13.47;;;7.13;;
71503;SDS011;59323;50.874;7.028;2023-05-23T00:56:53;13.67;;;6.67;;
71503;SDS011;59323;50.874;7.028;2023-05-23T00:59:19;14.20;;;6.65;;
71503;SDS011;59323;50.874;7.028;2023-05-23T01:01:46;15.70;;;7.50;;
71503;SDS011;59323;50.874;7.028;2023-05-23T01:04:14;13.93;;;6.88;;
71503;SDS011;59323;50.874;7.028;2023-05-23T01:06:40;14.35;;;6.97;;
71503;SDS011;59323;50.874;7.028;2023-05-23T01:09:10;14.23;;;7.35;;
71503;SDS011;59323;50.874;7.028;2023-05-23T01:11:51;16.45;;;7.03;;
71503;SDS011;59323;50.874;7.028;2023-05-23T01:14:22;15.63;;;7.70;;
71503;SDS011;59323;50.874;7.028;2023-05-23T01:17:06;16.13;;;7.38;;
71503;SDS011;59323;50.874;7.028;2023-05-23T01:22:40;16.73;;;6.90;;
71503;SDS011;59323;50.874;7.028;2023-05-23T01:30:34;12.52;;;5.95;;
71503;SDS011;59323;50.874;7.028;2023-05-23T01:33:03;10.77;;;5.95;;
71503;SDS011;59323;50.874;7.028;2023-05-23T01:35:29;12.55;;;6.00;;
71503;SDS011;59323;50.874;7.028;2023-05-23T01:37:55;10.60;;;5.40;;
71503;SDS011;59323;50.874;7.028;2023-05-23T01:40:22;11.77;;;5.63;;
71503;SDS011;59323;50.874;7.028;2023-05-23T01:42:48;11.00;;;5.72;;
71503;SDS011;59323;50.874;7.028;2023-05-23T01:45:14;10.77;;;5.40;;
71503;SDS011;59323;50.874;7.028;2023-05-23T01:47:40;10.98;;;5.20;;
71503;SDS011;59323;50.874;7.028;2023-05-23T01:50:07;11.70;;;5.53;;
71503;SDS011;59323;50.874;7.028;2023-05-23T01:52:34;12.27;;;5.97;;
71503;SDS011;59323;50.874;7.028;2023-05-23T01:55:00;14.68;;;5.35;;
71503;SDS011;59323;50.874;7.028;2023-05-23T01:57:30;13.37;;;5.97;;
71503;SDS011;59323;50.874;7.028;2023-05-23T01:59:57;13.15;;;6.85;;
71503;SDS011;59323;50.874;7.028;2023-05-23T02:02:23;14.70;;;6.90;;
71503;SDS011;59323;50.874;7.028;2023-05-23T02:04:48;12.10;;;6.22;;
71503;SDS011;59323;50.874;7.028;2023-05-23T02:07:13;12.87;;;6.17;;
71503;SDS011;59323;50.874;7.028;2023-05-23T02:09:39;12.70;;;6.50;;
71503;SDS011;59323;50.874;7.028;2023-05-23T02:12:04;10.80;;;4.73;;
71503;SDS011;59323;50.874;7.028;2023-05-23T02:14:30;10.25;;;5.50;;
71503;SDS011;59323;50.874;7.028;2023-05-23T02:16:55;10.13;;;4.73;;
71503;SDS011;59323;50.874;7.028;2023-05-23T02:19:21;9.43;;;4.50;;
71503;SDS011;59323;50.874;7.028;2023-05-23T02:21:46;10.43;;;4.40;;
71503;SDS011;59323;50.874;7.028;2023-05-23T02:24:11;8.77;;;3.70;;
71503;SDS011;59323;50.874;7.028;2023-05-23T02:26:37;8.40;;;3.73;;
71503;SDS011;59323;50.874;7.028;2023-05-23T02:29:02;9.57;;;3.85;;
71503;SDS011;59323;50.874;7.028;2023-05-23T02:31:27;7.97;;;3.70;;
71503;SDS011;59323;50.874;7.028;2023-05-23T02:33:53;10.10;;;3.70;;
71503;SDS011;59323;50.874;7.028;2023-05-23T02:36:18;8.70;;;3.00;;
71503;SDS011;59323;50.874;7.028;2023-05-23T02:38:43;7.87;;;3.90;;
71503;SDS011;59323;50.874;7.028;2023-05-23T02:41:09;9.17;;;3.63;;
71503;SDS011;59323;50.874;7.028;2023-05-23T02:43:34;6.60;;;3.53;;
71503;SDS011;59323;50.874;7.028;2023-05-23T02:46:00;8.13;;;3.57;;
71503;SDS011;59323;50.874;7.028;2023-05-23T02:48:25;6.80;;;3.13;;
71503;SDS011;59323;50.874;7.028;2023-05-23T02:50:50;11.10;;;3.53;;
71503;SDS011;59323;50.874;7.028;2023-05-23T02:53:16;7.50;;;3.10;;
71503;SDS011;59323;50.874;7.028;2023-05-23T02:55:42;7.87;;;3.07;;
71503;SDS011;59323;50.874;7.028;2023-05-23T02:58:07;6.70;;;3.00;;
71503;SDS011;59323;50.874;7.028;2023-05-23T03:00:33;6.87;;;2.93;;
71503;SDS011;59323;50.874;7.028;2023-05-23T03:02:58;9.40;;;3.50;;
71503;SDS011;59323;50.874;7.028;2023-05-23T03:05:23;7.57;;;3.47;;
71503;SDS011;59323;50.874;7.028;2023-05-23T03:07:49;7.23;;;3.20;;
71503;SDS011;59323;50.874;7.028;2023-05-23T03:10:16;7.80;;;3.40;;
71503;SDS011;59323;50.874;7.028;2023-05-23T03:12:41;8.57;;;3.50;;
71503;SDS011;59323;50.874;7.028;2023-05-23T03:15:07;8.30;;;3.15;;
71503;SDS011;59323;50.874;7.028;2023-05-23T03:17:33;7.95;;;3.30;;
71503;SDS011;59323;50.874;7.028;2023-05-23T03:19:59;9.23;;;3.93;;
71503;SDS011;59323;50.874;7.028;2023-05-23T03:22:24;8.50;;;3.87;;
71503;SDS011;59323;50.874;7.028;2023-05-23T03:24:50;8.10;;;3.50;;
71503;SDS011;59323;50.874;7.028;2023-05-23T03:27:15;9.20;;;4.20;;
71503;SDS011;59323;50.874;7.028;2023-05-23T03:29:40;10.50;;;4.30;;
71503;SDS011;59323;50.874;7.028;2023-05-23T03:32:06;8.77;;;4.23;;
71503;SDS011;59323;50.874;7.028;2023-05-23T03:34:31;8.37;;;3.83;;
71503;SDS011;59323;50.874;7.028;2023-05-23T03:36:57;9.98;;;3.90;;
71503;SDS011;59323;50.874;7.028;2023-05-23T03:39:23;10.15;;;4.82;;
71503;SDS011;59323;50.874;7.028;2023-05-23T03:41:49;9.77;;;4.67;;
71503;SDS011;59323;50.874;7.028;2023-05-23T03:44:14;8.75;;;3.80;;
71503;SDS011;59323;50.874;7.028;2023-05-23T03:46:40;12.43;;;4.70;;
71503;SDS011;59323;50.874;7.028;2023-05-23T03:49:05;9.73;;;4.57;;
71503;SDS011;59323;50.874;7.028;2023-05-23T03:51:31;12.07;;;5.00;;
71503;SDS011;59323;50.874;7.028;2023-05-23T03:53:56;11.17;;;5.23;;
71503;SDS011;59323;50.874;7.028;2023-05-23T03:56:21;10.63;;;5.10;;
71503;SDS011;59323;50.874;7.028;2023-05-23T03:58:47;12.50;;;5.28;;
71503;SDS011;59323;50.874;7.028;2023-05-23T04:01:12;10.27;;;5.30;;
71503;SDS011;59323;50.874;7.028;2023-05-23T04:03:38;15.37;;;6.40;;
71503;SDS011;59323;50.874;7.028;2023-05-23T04:06:03;14.43;;;5.60;;
71503;SDS011;59323;50.874;7.028;2023-05-23T04:08:28;11.52;;;5.55;;
71503;SDS011;59323;50.874;7.028;2023-05-23T04:10:58;11.57;;;5.28;;
71503;SDS011;59323;50.874;7.028;2023-05-23T04:13:26;11.47;;;5.30;;
71503;SDS011;59323;50.874;7.028;2023-05-23T04:15:52;10.82;;;4.50;;
71503;SDS011;59323;50.874;7.028;2023-05-23T04:18:20;12.30;;;5.53;;
71503;SDS011;59323;50.874;7.028;2023-05-23T04:20:46;10.73;;;5.25;;
71503;SDS011;59323;50.874;7.028;2023-05-23T04:23:11;12.57;;;5.37;;
71503;SDS011;59323;50.874;7.028;2023-05-23T04:25:37;11.80;;;5.63;;
71503;SDS011;59323;50.874;7.028;2023-05-23T04:28:03;12.60;;;5.10;;
71503;SDS011;59323;50.874;7.028;2023-05-23T04:30:29;11.80;;;5.20;;
71503;SDS011;59323;50.874;7.028;2023-05-23T04:32:55;11.65;;;5.88;;
71503;SDS011;59323;50.874;7.028;2023-05-23T04:35:22;10.35;;;4.45;;
71503;SDS011;59323;50.874;7.028;2023-05-23T04:37:47;10.40;;;4.83;;
71503;SDS011;59323;50.874;7.028;2023-05-23T04:40:13;10.87;;;4.53;;
71503;SDS011;59323;50.874;7.028;2023-05-23T04:42:38;8.83;;;3.90;;
71503;SDS011;59323;50.874;7.028;2023-05-23T04:45:06;9.82;;;3.92;;
71503;SDS011;59323;50.874;7.028;2023-05-23T04:47:33;10.82;;;3.75;;
71503;SDS011;59323;50.874;7.028;2023-05-23T04:49:58;12.48;;;4.28;;
71503;SDS011;59323;50.874;7.028;2023-05-23T04:52:24;10.57;;;4.07;;
71503;SDS011;59323;50.874;7.028;2023-05-23T04:54:51;11.00;;;3.78;;
71503;SDS011;59323;50.874;7.028;2023-05-23T04:57:18;8.52;;;3.80;;
71503;SDS011;59323;50.874;7.028;2023-05-23T04:59:43;10.40;;;3.70;;
71503;SDS011;59323;50.874;7.028;2023-05-23T05:02:08;11.07;;;4.23;;
71503;SDS011;59323;50.874;7.028;2023-05-23T05:04:34;12.45;;;4.10;;
71503;SDS011;59323;50.874;7.028;2023-05-23T05:07:00;10.85;;;4.13;;
71503;SDS011;59323;50.874;7.028;2023-05-23T05:09:28;9.77;;;3.97;;
71503;SDS011;59323;50.874;7.028;2023-05-23T05:11:54;15.15;;;4.22;;
71503;SDS011;59323;50.874;7.028;2023-05-23T05:14:19;11.03;;;4.10;;
71503;SDS011;59323;50.874;7.028;2023-05-23T05:16:45;10.93;;;4.20;;
71503;SDS011;59323;50.874;7.028;2023-05-23T05:19:11;10.87;;;4.30;;
71503;SDS011;59323;50.874;7.028;2023-05-23T05:21:36;12.50;;;4.50;;
71503;SDS011;59323;50.874;7.028;2023-05-23T05:24:02;11.23;;;4.38;;
71503;SDS011;59323;50.874;7.028;2023-05-23T05:26:27;11.30;;;4.57;;
71503;SDS011;59323;50.874;7.028;2023-05-23T05:28:52;12.47;;;4.57;;
71503;SDS011;59323;50.874;7.028;2023-05-23T05:31:18;9.90;;;4.10;;
71503;SDS011;59323;50.874;7.028;2023-05-23T05:33:43;12.63;;;4.37;;
71503;SDS011;59323;50.874;7.028;2023-05-23T05:36:09;9.80;;;4.38;;
71503;SDS011;59323;50.874;7.028;2023-05-23T05:38:35;12.93;;;4.80;;
71503;SDS011;59323;50.874;7.028;2023-05-23T05:41:00;11.90;;;4.87;;
71503;SDS011;59323;50.874;7.028;2023-05-23T05:43:26;11.20;;;4.33;;
71503;SDS011;59323;50.874;7.028;2023-05-23T05:45:51;14.60;;;4.90;;
71503;SDS011;59323;50.874;7.028;2023-05-23T05:48:16;12.23;;;4.87;;
71503;SDS011;59323;50.874;7.028;2023-05-23T05:50:42;13.80;;;5.13;;
71503;SDS011;59323;50.874;7.028;2023-05-23T05:53:09;10.63;;;4.77;;
71503;SDS011;59323;50.874;7.028;2023-05-23T05:55:35;12.23;;;4.78;;
71503;SDS011;59323;50.874;7.028;2023-05-23T05:58:01;11.25;;;4.80;;
71503;SDS011;59323;50.874;7.028;2023-05-23T06:00:27;13.13;;;5.00;;
71503;SDS011;59323;50.874;7.028;2023-05-23T06:02:52;10.60;;;4.43;;
71503;SDS011;59323;50.874;7.028;2023-05-23T06:05:21;12.27;;;5.00;;
71503;SDS011;59323;50.874;7.028;2023-05-23T06:07:48;11.57;;;4.95;;
71503;SDS011;59323;50.874;7.028;2023-05-23T06:10:14;14.95;;;4.72;;
71503;SDS011;59323;50.874;7.028;2023-05-23T06:12:39;10.03;;;4.97;;
71503;SDS011;59323;50.874;7.028;2023-05-23T06:15:05;15.95;;;5.25;;
71503;SDS011;59323;50.874;7.028;2023-05-23T06:17:31;13.80;;;5.03;;
71503;SDS011;59323;50.874;7.028;2023-05-23T06:19:56;13.33;;;5.13;;
71503;SDS011;59323;50.874;7.028;2023-05-23T06:22:21;12.30;;;5.57;;
71503;SDS011;59323;50.874;7.028;2023-05-23T06:24:47;13.73;;;5.47;;
71503;SDS011;59323;50.874;7.028;2023-05-23T06:27:12;14.00;;;5.67;;
71503;SDS011;59323;50.874;7.028;2023-05-23T06:29:38;13.60;;;6.13;;
71503;SDS011;59323;50.874;7.028;2023-05-23T06:32:03;13.33;;;5.03;;
71503;SDS011;59323;50.874;7.028;2023-05-23T06:34:29;13.27;;;6.25;;
71503;SDS011;59323;50.874;7.028;2023-05-23T06:36:55;13.27;;;6.03;;
71503;SDS011;59323;50.874;7.028;2023-05-23T06:39:20;13.70;;;5.90;;
71503;SDS011;59323;50.874;7.028;2023-05-23T06:41:46;11.80;;;5.87;;
71503;SDS011;59323;50.874;7.028;2023-05-23T06:44:11;12.18;;;5.95;;
71503;SDS011;59323;50.874;7.028;2023-05-23T06:46:37;14.33;;;6.20;;
71503;SDS011;59323;50.874;7.028;2023-05-23T06:49:02;18.40;;;6.43;;
71503;SDS011;59323;50.874;7.028;2023-05-23T06:51:27;12.03;;;5.60;;
71503;SDS011;59323;50.874;7.028;2023-05-23T06:53:53;14.93;;;6.47;;
71503;SDS011;59323;50.874;7.028;2023-05-23T06:56:20;14.82;;;5.65;;
71503;SDS011;59323;50.874;7.028;2023-05-23T06:58:46;13.10;;;6.47;;
71503;SDS011;59323;50.874;7.028;2023-05-23T07:01:11;12.53;;;6.33;;
71503;SDS011;59323;50.874;7.028;2023-05-23T07:03:37;13.83;;;6.07;;
71503;SDS011;59323;50.874;7.028;2023-05-23T07:06:05;13.55;;;6.20;;
71503;SDS011;59323;50.874;7.028;2023-05-23T07:08:32;16.55;;;6.03;;
71503;SDS011;59323;50.874;7.028;2023-05-23T07:10:57;13.18;;;5.63;;
71503;SDS011;59323;50.874;7.028;2023-05-23T07:13:23;15.03;;;5.90;;
71503;SDS011;59323;50.874;7.028;2023-05-23T07:15:48;15.53;;;5.77;;
71503;SDS011;59323;50.874;7.028;2023-05-23T07:18:13;11.33;;;5.00;;
71503;SDS011;59323;50.874;7.028;2023-05-23T07:20:39;10.93;;;5.17;;
71503;SDS011;59323;50.874;7.028;2023-05-23T07:23:04;12.60;;;5.50;;
71503;SDS011;59323;50.874;7.028;2023-05-23T07:25:29;13.87;;;5.17;;
71503;SDS011;59323;50.874;7.028;2023-05-23T07:27:55;13.73;;;5.43;;
71503;SDS011;59323;50.874;7.028;2023-05-23T07:30:20;12.63;;;5.83;;
71503;SDS011;59323;50.874;7.028;2023-05-23T07:32:46;11.50;;;4.40;;
71503;SDS011;59323;50.874;7.028;2023-05-23T07:35:12;13.23;;;5.45;;
71503;SDS011;59323;50.874;7.028;2023-05-23T07:37:38;13.75;;;6.05;;
71503;SDS011;59323;50.874;7.028;2023-05-23T07:40:04;12.73;;;5.10;;
71503;SDS011;59323;50.874;7.028;2023-05-23T07:42:30;11.15;;;5.10;;
71503;SDS011;59323;50.874;7.028;2023-05-23T07:44:55;12.43;;;5.67;;
71503;SDS011;59323;50.874;7.028;2023-05-23T07:47:20;11.67;;;5.37;;
71503;SDS011;59323;50.874;7.028;2023-05-23T07:49:46;10.40;;;4.83;;
71503;SDS011;59323;50.874;7.028;2023-05-23T07:52:11;13.67;;;5.37;;
71503;SDS011;59323;50.874;7.028;2023-05-23T07:54:37;13.55;;;4.93;;
71503;SDS011;59323;50.874;7.028;2023-05-23T07:57:02;11.50;;;5.17;;
71503;SDS011;59323;50.874;7.028;2023-05-23T07:59:28;11.53;;;5.53;;
71503;SDS011;59323;50.874;7.028;2023-05-23T08:01:54;10.93;;;5.22;;
71503;SDS011;59323;50.874;7.028;2023-05-23T08:04:19;12.93;;;4.70;;
71503;SDS011;59323;50.874;7.028;2023-05-23T08:06:45;9.80;;;4.87;;
71503;SDS011;59323;50.874;7.028;2023-05-23T08:09:12;9.25;;;4.63;;
71503;SDS011;59323;50.874;7.028;2023-05-23T08:11:37;10.73;;;4.87;;
71503;SDS011;59323;50.874;7.028;2023-05-23T08:14:03;11.97;;;5.07;;
71503;SDS011;59323;50.874;7.028;2023-05-23T08:16:28;10.53;;;4.80;;
71503;SDS011;59323;50.874;7.028;2023-05-23T08:18:53;12.47;;;5.17;;
71503;SDS011;59323;50.874;7.028;2023-05-23T08:21:19;13.63;;;4.93;;
71503;SDS011;59323;50.874;7.028;2023-05-23T08:23:44;12.40;;;5.03;;
71503;SDS011;59323;50.874;7.028;2023-05-23T08:26:09;12.20;;;4.87;;
71503;SDS011;59323;50.874;7.028;2023-05-23T08:28:35;12.17;;;4.97;;
71503;SDS011;59323;50.874;7.028;2023-05-23T08:31:00;11.20;;;4.27;;
71503;SDS011;59323;50.874;7.028;2023-05-23T08:33:25;11.73;;;5.07;;
71503;SDS011;59323;50.874;7.028;2023-05-23T08:35:51;9.37;;;4.50;;
71503;SDS011;59323;50.874;7.028;2023-05-23T08:38:16;10.27;;;4.70;;
71503;SDS011;59323;50.874;7.028;2023-05-23T08:40:43;11.25;;;4.95;;
71503;SDS011;59323;50.874;7.028;2023-05-23T08:43:15;12.57;;;4.80;;
71503;SDS011;59323;50.874;7.028;2023-05-23T08:45:40;13.07;;;4.73;;
71503;SDS011;59323;50.874;7.028;2023-05-23T08:48:07;11.15;;;5.10;;
71503;SDS011;59323;50.874;7.028;2023-05-23T08:50:37;12.65;;;4.75;;
71503;SDS011;59323;50.874;7.028;2023-05-23T08:53:05;12.13;;;4.35;;
71503;SDS011;59323;50.874;7.028;2023-05-23T08:55:34;12.80;;;4.43;;
71503;SDS011;59323;50.874;7.028;2023-05-23T08:58:02;11.77;;;4.35;;
71503;SDS011;59323;50.874;7.028;2023-05-23T09:00:27;14.30;;;5.07;;
71503;SDS011;59323;50.874;7.028;2023-05-23T09:02:53;11.90;;;4.57;;
71503;SDS011;59323;50.874;7.028;2023-05-23T09:05:19;11.80;;;4.78;;
71503;SDS011;59323;50.874;7.028;2023-05-23T09:07:45;12.23;;;4.88;;
71503;SDS011;59323;50.874;7.028;2023-05-23T09:10:12;9.90;;;5.20;;
71503;SDS011;59323;50.874;7.028;2023-05-23T09:12:38;12.27;;;6.20;;
71503;SDS011;59323;50.874;7.028;2023-05-23T09:15:04;14.40;;;6.15;;
71503;SDS011;59323;50.874;7.028;2023-05-23T09:17:33;14.03;;;6.47;;
71503;SDS011;59323;50.874;7.028;2023-05-23T09:20:00;13.95;;;6.22;;
71503;SDS011;59323;50.874;7.028;2023-05-23T09:22:26;14.25;;;5.80;;
71503;SDS011;59323;50.874;7.028;2023-05-23T09:24:53;15.95;;;6.07;;
71503;SDS011;59323;50.874;7.028;2023-05-23T09:27:19;14.35;;;5.65;;
71503;SDS011;59323;50.874;7.028;2023-05-23T09:29:45;13.33;;;5.47;;
71503;SDS011;59323;50.874;7.028;2023-05-23T09:32:18;14.57;;;6.03;;
71503;SDS011;59323;50.874;7.028;2023-05-23T09:34:58;14.48;;;5.97;;
71503;SDS011;59323;50.874;7.028;2023-05-23T09:37:37;13.87;;;5.50;;
71503;SDS011;59323;50.874;7.028;2023-05-23T09:40:14;18.27;;;6.07;;
71503;SDS011;59323;50.874;7.028;2023-05-23T09:42:46;13.38;;;5.30;;
71503;SDS011;59323;50.874;7.028;2023-05-23T09:45:12;15.02;;;6.50;;
71503;SDS011;59323;50.874;7.028;2023-05-23T09:47:47;17.23;;;6.47;;
71503;SDS011;59323;50.874;7.028;2023-05-23T09:50:16;14.93;;;6.00;;
71503;SDS011;59323;50.874;7.028;2023-05-23T09:52:42;12.77;;;5.78;;
71503;SDS011;59323;50.874;7.028;2023-05-23T09:55:08;16.93;;;5.90;;
71503;SDS011;59323;50.874;7.028;2023-05-23T09:57:34;14.25;;;6.40;;
71503;SDS011;59323;50.874;7.028;2023-05-23T10:00:02;21.48;;;6.82;;
71503;SDS011;59323;50.874;7.028;2023-05-23T10:05:35;15.48;;;6.60;;
71503;SDS011;59323;50.874;7.028;2023-05-23T10:08:24;16.67;;;7.53;;
71503;SDS011;59323;50.874;7.028;2023-05-23T10:13:20;18.37;;;9.00;;
71503;SDS011;59323;50.874;7.028;2023-05-23T10:15:50;25.90;;;11.63;;
71503;SDS011;59323;50.874;7.028;2023-05-23T10:18:24;34.47;;;19.02;;
71503;SDS011;59323;50.874;7.028;2023-05-23T10:20:53;43.40;;;21.55;;
71503;SDS011;59323;50.874;7.028;2023-05-23T10:23:24;43.00;;;21.80;;
71503;SDS011;59323;50.874;7.028;2023-05-23T10:25:51;46.42;;;21.77;;
71503;SDS011;59323;50.874;7.028;2023-05-23T10:28:16;38.72;;;21.08;;
71503;SDS011;59323;50.874;7.028;2023-05-23T10:30:43;44.80;;;20.30;;
71503;SDS011;59323;50.874;7.028;2023-05-23T10:33:13;41.97;;;19.63;;
71503;SDS011;59323;50.874;7.028;2023-05-23T10:35:49;37.15;;;17.17;;
71503;SDS011;59323;50.874;7.028;2023-05-23T10:41:28;24.38;;;11.00;;
71503;SDS011;59323;50.874;7.028;2023-05-23T10:44:03;17.13;;;9.27;;
71503;SDS011;59323;50.874;7.028;2023-05-23T10:49:17;18.13;;;7.40;;
71503;SDS011;59323;50.874;7.028;2023-05-23T10:51:42;16.55;;;6.55;;
71503;SDS011;59323;50.874;7.028;2023-05-23T10:54:13;15.60;;;6.82;;
71503;SDS011;59323;50.874;7.028;2023-05-23T10:56:38;23.27;;;7.20;;
71503;SDS011;59323;50.874;7.028;2023-05-23T10:59:04;14.37;;;6.10;;
71503;SDS011;59323;50.874;7.028;2023-05-23T11:01:30;16.17;;;7.18;;
71503;SDS011;59323;50.874;7.028;2023-05-23T11:03:56;15.60;;;6.60;;
71503;SDS011;59323;50.874;7.028;2023-05-23T11:06:28;16.17;;;6.20;;
71503;SDS011;59323;50.874;7.028;2023-05-23T11:09:04;15.52;;;6.32;;
71503;SDS011;59323;50.874;7.028;2023-05-23T11:14:31;16.33;;;6.43;;
71503;SDS011;59323;50.874;7.028;2023-05-23T11:16:57;12.95;;;5.35;;
71503;SDS011;59323;50.874;7.028;2023-05-23T11:19:24;13.40;;;5.50;;
71503;SDS011;59323;50.874;7.028;2023-05-23T11:21:56;12.45;;;5.00;;
71503;SDS011;59323;50.874;7.028;2023-05-23T11:24:22;13.77;;;5.20;;
71503;SDS011;59323;50.874;7.028;2023-05-23T11:26:54;14.63;;;5.27;;
71503;SDS011;59323;50.874;7.028;2023-05-23T11:29:26;12.75;;;4.97;;
71503;SDS011;59323;50.874;7.028;2023-05-23T11:31:53;19.75;;;6.38;;
71503;SDS011;59323;50.874;7.028;2023-05-23T11:34:19;13.55;;;6.22;;
71503;SDS011;59323;50.874;7.028;2023-05-23T11:36:45;14.90;;;7.10;;
71503;SDS011;59323;50.874;7.028;2023-05-23T11:39:11;15.10;;;6.60;;
71503;SDS011;59323;50.874;7.028;2023-05-23T11:41:38;14.35;;;6.30;;
71503;SDS011;59323;50.874;7.028;2023-05-23T11:44:12;12.35;;;6.07;;
71503;SDS011;59323;50.874;7.028;2023-05-23T11:46:38;14.93;;;6.90;;
71503;SDS011;59323;50.874;7.028;2023-05-23T11:49:09;14.30;;;6.97;;
71503;SDS011;59323;50.874;7.028;2023-05-23T11:51:35;16.98;;;7.43;;
71503;SDS011;59323;50.874;7.028;2023-05-23T11:54:00;18.37;;;8.67;;
71503;SDS011;59323;50.874;7.028;2023-05-23T11:56:26;18.98;;;8.23;;
71503;SDS011;59323;50.874;7.028;2023-05-23T11:58:51;22.17;;;9.70;;
71503;SDS011;59323;50.874;7.028;2023-05-23T12:01:19;16.25;;;8.32;;
71503;SDS011;59323;50.874;7.028;2023-05-23T12:03:47;20.98;;;8.80;;
71503;SDS011;59323;50.874;7.028;2023-05-23T12:06:15;13.73;;;7.40;;
71503;SDS011;59323;50.874;7.028;2023-05-23T12:08:43;18.27;;;7.60;;
71503;SDS011;59323;50.874;7.028;2023-05-23T12:11:08;16.57;;;7.30;;
71503;SDS011;59323;50.874;7.028;2023-05-23T12:13:35;18.40;;;8.10;;
71503;SDS011;59323;50.874;7.028;2023-05-23T12:16:01;18.30;;;7.45;;
71503;SDS011;59323;50.874;7.028;2023-05-23T12:18:29;19.40;;;7.80;;
71503;SDS011;59323;50.874;7.028;2023-05-23T12:21:03;17.23;;;7.90;;
71503;SDS011;59323;50.874;7.028;2023-05-23T12:23:30;18.13;;;8.65;;
71503;SDS011;59323;50.874;7.028;2023-05-23T12:25:56;19.07;;;9.00;;
71503;SDS011;59323;50.874;7.028;2023-05-23T12:28:41;16.23;;;8.27;;
71503;SDS011;59323;50.874;7.028;2023-05-23T12:31:27;18.27;;;8.60;;
71503;SDS011;59323;50.874;7.028;2023-05-23T12:33:52;15.32;;;8.85;;
71503;SDS011;59323;50.874;7.028;2023-05-23T12:36:22;17.53;;;9.23;;
71503;SDS011;59323;50.874;7.028;2023-05-23T12:38:49;18.83;;;9.35;;
71503;SDS011;59323;50.874;7.028;2023-05-23T12:41:15;19.20;;;9.53;;
71503;SDS011;59323;50.874;7.028;2023-05-23T12:43:50;20.02;;;9.07;;
71503;SDS011;59323;50.874;7.028;2023-05-23T12:46:20;18.08;;;9.60;;
71503;SDS011;59323;50.874;7.028;2023-05-23T12:48:47;18.57;;;11.23;;
71503;SDS011;59323;50.874;7.028;2023-05-23T12:51:12;21.95;;;10.60;;
71503;SDS011;59323;50.874;7.028;2023-05-23T12:53:38;19.97;;;8.17;;
71503;SDS011;59323;50.874;7.028;2023-05-23T12:56:04;18.38;;;7.88;;
71503;SDS011;59323;50.874;7.028;2023-05-23T12:58:29;11.97;;;6.60;;
71503;SDS011;59323;50.874;7.028;2023-05-23T13:00:56;14.83;;;7.00;;
71503;SDS011;59323;50.874;7.028;2023-05-23T13:03:21;15.98;;;7.00;;
71503;SDS011;59323;50.874;7.028;2023-05-23T13:05:47;17.33;;;9.00;;
71503;SDS011;59323;50.874;7.028;2023-05-23T13:08:16;24.98;;;14.48;;
71503;SDS011;59323;50.874;7.028;2023-05-23T13:10:43;27.73;;;16.20;;
71503;SDS011;59323;50.874;7.028;2023-05-23T13:13:08;26.27;;;12.73;;
71503;SDS011;59323;50.874;7.028;2023-05-23T13:15:34;19.95;;;10.23;;
71503;SDS011;59323;50.874;7.028;2023-05-23T13:18:01;21.23;;;8.80;;
71503;SDS011;59323;50.874;7.028;2023-05-23T13:20:26;19.30;;;10.43;;
71503;SDS011;59323;50.874;7.028;2023-05-23T13:22:56;22.00;;;11.88;;
71503;SDS011;59323;50.874;7.028;2023-05-23T13:25:21;21.97;;;12.70;;
71503;SDS011;59323;50.874;7.028;2023-05-23T13:27:47;23.95;;;13.35;;
71503;SDS011;59323;50.874;7.028;2023-05-23T13:30:13;22.13;;;13.20;;
71503;SDS011;59323;50.874;7.028;2023-05-23T13:32:38;20.30;;;12.27;;
71503;SDS011;59323;50.874;7.028;2023-05-23T13:35:04;20.53;;;11.43;;
71503;SDS011;59323;50.874;7.028;2023-05-23T13:37:30;18.33;;;10.23;;
71503;SDS011;59323;50.874;7.028;2023-05-23T13:39:55;17.07;;;9.30;;
71503;SDS011;59323;50.874;7.028;2023-05-23T13:42:20;19.20;;;8.30;;
71503;SDS011;59323;50.874;7.028;2023-05-23T13:44:46;13.98;;;7.85;;
71503;SDS011;59323;50.874;7.028;2023-05-23T13:47:12;16.37;;;8.33;;
71503;SDS011;59323;50.874;7.028;2023-05-23T13:49:38;15.30;;;8.68;;
71503;SDS011;59323;50.874;7.028;2023-05-23T13:52:04;15.13;;;8.50;;
71503;SDS011;59323;50.874;7.028;2023-05-23T13:54:30;15.43;;;7.82;;
71503;SDS011;59323;50.874;7.028;2023-05-23T13:56:56;13.40;;;6.83;;
71503;SDS011;59323;50.874;7.028;2023-05-23T13:59:21;17.85;;;8.23;;
71503;SDS011;59323;50.874;7.028;2023-05-23T14:01:48;15.48;;;8.05;;
71503;SDS011;59323;50.874;7.028;2023-05-23T14:04:13;17.60;;;8.07;;
71503;SDS011;59323;50.874;7.028;2023-05-23T14:06:38;15.00;;;7.20;;
71503;SDS011;59323;50.874;7.028;2023-05-23T14:09:04;16.70;;;8.30;;
71503;SDS011;59323;50.874;7.028;2023-05-23T14:11:30;15.45;;;8.00;;
71503;SDS011;59323;50.874;7.028;2023-05-23T14:13:55;17.10;;;8.05;;
71503;SDS011;59323;50.874;7.028;2023-05-23T14:16:21;15.97;;;8.30;;
71503;SDS011;59323;50.874;7.028;2023-05-23T14:18:46;14.03;;;7.90;;
71503;SDS011;59323;50.874;7.028;2023-05-23T14:21:11;14.67;;;8.30;;
71503;SDS011;59323;50.874;7.028;2023-05-23T14:23:37;14.30;;;7.47;;
71503;SDS011;59323;50.874;7.028;2023-05-23T14:26:02;18.40;;;7.20;;
71503;SDS011;59323;50.874;7.028;2023-05-23T14:28:28;19.10;;;7.18;;
71503;SDS011;59323;50.874;7.028;2023-05-23T14:30:53;13.83;;;6.90;;
71503;SDS011;59323;50.874;7.028;2023-05-23T14:33:19;16.88;;;7.53;;
71503;SDS011;59323;50.874;7.028;2023-05-23T14:35:45;15.47;;;7.63;;
71503;SDS011;59323;50.874;7.028;2023-05-23T14:38:10;17.25;;;7.82;;
71503;SDS011;59323;50.874;7.028;2023-05-23T14:40:36;16.23;;;8.43;;
71503;SDS011;59323;50.874;7.028;2023-05-23T14:43:01;14.87;;;8.60;;
71503;SDS011;59323;50.874;7.028;2023-05-23T14:45:27;15.97;;;9.47;;
71503;SDS011;59323;50.874;7.028;2023-05-23T14:47:52;17.03;;;10.13;;
71503;SDS011;59323;50.874;7.028;2023-05-23T14:50:17;17.45;;;9.23;;
71503;SDS011;59323;50.874;7.028;2023-05-23T14:52:43;17.47;;;9.87;;
71503;SDS011;59323;50.874;7.028;2023-05-23T14:55:09;18.65;;;9.85;;